Time;durP1;ratioP1;P1;durP2;ratioP2;P2;SDS_P1;SDS_P2;PMS_P1;PMS_P2;Temp;Humidity;BMP_temperature;BMP_pressure;BME280_temperature;BME280_humidity;BME280_pressure;Samples;Min_cycle;Max_cycle;Signal;HPM_P1;HPM_P2
2022/10/20 00:02:16;;;;;;;18.13;5.80;;;;;;;;;;4945607;28;20092;-93
2022/10/20 00:04:42;;;;;;;15.38;6.78;;;;;;;;;;4926894;28;20323;-93
2022/10/20 00:07:08;;;;;;;16.95;5.97;;;;;;;;;;4948999;28;20051;-92
2022/10/20 00:09:34;;;;;;;18.25;5.43;;;;;;;;;;4944638;28;20031;-92
2022/10/20 00:12:00;;;;;;;14.25;5.93;;;;;;;;;;4945226;28;20040;-92
2022/10/20 00:14:26;;;;;;;15.02;5.75;;;;;;;;;;4932946;28;20146;-92
2022/10/20 00:16:52;;;;;;;12.38;5.95;;;;;;;;;;4928116;28;20089;-92
2022/10/20 00:19:18;;;;;;;16.30;8.32;;;;;;;;;;4929029;28;20713;-92
2022/10/20 00:21:44;;;;;;;12.25;5.50;;;;;;;;;;4931419;28;20027;-92
2022/10/20 00:24:10;;;;;;;12.48;5.60;;;;;;;;;;4925422;29;20063;-92
2022/10/20 00:26:36;;;;;;;14.48;7.03;;;;;;;;;;4925094;29;20034;-92
2022/10/20 00:29:03;;;;;;;22.70;5.53;;;;;;;;;;4946407;28;20137;-92
2022/10/20 00:31:29;;;;;;;11.55;6.07;;;;;;;;;;4942249;28;20038;-92
2022/10/20 00:33:55;;;;;;;16.05;5.80;;;;;;;;;;4925633;28;20027;-92
2022/10/20 00:36:24;;;;;;;14.40;6.10;;;;;;;;;;4939881;28;20383;-93
2022/10/20 00:38:51;;;;;;;11.73;5.65;;;;;;;;;;4921166;28;20035;-93
2022/10/20 00:41:19;;;;;;;11.20;5.13;;;;;;;;;;4927558;28;20034;-94
2022/10/20 00:43:51;;;;;;;17.52;5.30;;;;;;;;;;4937921;28;21257;-93
2022/10/20 00:46:30;;;;;;;16.83;6.55;;;;;;;;;;4949023;28;20051;-93
2022/10/20 00:49:01;;;;;;;12.98;5.78;;;;;;;;;;4945611;28;20182;-93
2022/10/20 00:51:28;;;;;;;13.48;5.60;;;;;;;;;;4955533;28;20019;-93
2022/10/20 00:53:58;;;;;;;12.75;5.55;;;;;;;;;;4935750;28;20058;-92
2022/10/20 00:56:24;;;;;;;13.88;5.20;;;;;;;;;;4942085;28;20038;-93
2022/10/20 00:58:53;;;;;;;10.65;5.45;;;;;;;;;;4933433;29;20031;-93
2022/10/20 01:01:25;;;;;;;15.10;5.10;;;;;;;;;;4911339;28;20054;-93
2022/10/20 01:03:52;;;;;;;13.45;4.45;;;;;;;;;;4941937;28;20032;-92
2022/10/20 01:06:19;;;;;;;15.32;5.70;;;;;;;;;;4957739;28;20593;-92
2022/10/20 01:08:45;;;;;;;19.92;6.00;;;;;;;;;;4941928;28;20027;-92
2022/10/20 01:11:15;;;;;;;17.63;6.00;;;;;;;;;;4930416;28;20058;-92
2022/10/20 01:13:48;;;;;;;14.55;6.03;;;;;;;;;;4942670;28;20031;-92
2022/10/20 01:16:37;;;;;;;11.35;5.82;;;;;;;;;;4941556;28;20054;-92
2022/10/20 01:19:22;;;;;;;13.05;5.63;;;;;;;;;;4944566;28;20117;-92
2022/10/20 01:21:54;;;;;;;16.52;6.22;;;;;;;;;;4940085;28;20057;-92
2022/10/20 01:24:39;;;;;;;11.43;4.80;;;;;;;;;;4956179;28;20032;-93
2022/10/20 01:27:33;;;;;;;14.95;5.80;;;;;;;;;;4958811;28;20032;-93
2022/10/20 01:30:06;;;;;;;10.27;5.22;;;;;;;;;;4958541;28;20531;-93
2022/10/20 01:32:54;;;;;;;17.65;6.05;;;;;;;;;;4930546;29;20042;-93
2022/10/20 01:35:39;;;;;;;11.30;5.43;;;;;;;;;;4943549;28;20043;-92
2022/10/20 01:38:11;;;;;;;14.70;5.18;;;;;;;;;;4954029;28;20038;-93
2022/10/20 01:40:56;;;;;;;12.48;5.00;;;;;;;;;;4940321;28;20019;-93
2022/10/20 01:43:25;;;;;;;12.55;4.60;;;;;;;;;;4932981;28;20050;-92
2022/10/20 01:45:52;;;;;;;13.07;4.80;;;;;;;;;;4941683;28;20047;-92
2022/10/20 01:48:20;;;;;;;17.13;5.55;;;;;;;;;;4943512;28;20066;-92
2022/10/20 01:50:47;;;;;;;21.35;5.35;;;;;;;;;;4951952;28;20098;-92
2022/10/20 01:53:22;;;;;;;19.33;5.88;;;;;;;;;;4939540;28;20038;-92
2022/10/20 01:55:52;;;;;;;11.98;5.13;;;;;;;;;;4940105;28;20350;-93
2022/10/20 01:58:30;;;;;;;17.30;6.35;;;;;;;;;;4944400;28;20546;-90
2022/10/20 02:01:04;;;;;;;15.70;6.13;;;;;;;;;;4947233;28;20086;-93
2022/10/20 02:03:48;;;;;;;13.13;4.55;;;;;;;;;;4939982;28;20024;-93
2022/10/20 02:06:20;;;;;;;15.95;5.70;;;;;;;;;;4953315;28;20885;-92
2022/10/20 02:08:49;;;;;;;15.10;5.55;;;;;;;;;;4947916;28;20319;-92
2022/10/20 02:11:34;;;;;;;14.90;5.80;;;;;;;;;;4952424;28;20069;-92
2022/10/20 02:14:00;;;;;;;12.52;5.72;;;;;;;;;;4959728;28;20032;-92
2022/10/20 02:16:31;;;;;;;32.15;5.82;;;;;;;;;;4929452;28;20034;-92
2022/10/20 02:18:57;;;;;;;13.05;4.95;;;;;;;;;;4941971;28;20058;-92
2022/10/20 02:21:24;;;;;;;12.48;5.18;;;;;;;;;;4942620;28;20415;-92
2022/10/20 02:23:50;;;;;;;13.23;5.45;;;;;;;;;;4952211;28;20039;-92
2022/10/20 02:26:18;;;;;;;14.73;5.72;;;;;;;;;;4944971;28;20023;-93
2022/10/20 02:28:52;;;;;;;13.88;5.13;;;;;;;;;;4938388;28;20388;-93
2022/10/20 02:31:18;;;;;;;12.50;5.07;;;;;;;;;;4946467;28;20089;-92
2022/10/20 02:33:46;;;;;;;13.80;5.32;;;;;;;;;;4927676;28;20040;-93
2022/10/20 02:36:16;;;;;;;19.10;6.28;;;;;;;;;;4960664;28;20038;-93
2022/10/20 02:38:42;;;;;;;18.33;5.80;;;;;;;;;;4963621;28;20262;-92
2022/10/20 02:41:08;;;;;;;13.43;5.20;;;;;;;;;;4955100;28;20031;-92
2022/10/20 02:43:34;;;;;;;13.70;5.88;;;;;;;;;;4943170;28;20055;-92
2022/10/20 02:46:00;;;;;;;12.50;5.63;;;;;;;;;;4941380;28;20483;-93
2022/10/20 02:48:26;;;;;;;13.00;6.15;;;;;;;;;;4947852;28;20050;-93
2022/10/20 02:50:52;;;;;;;13.07;5.78;;;;;;;;;;4927961;28;20038;-91
2022/10/20 02:53:18;;;;;;;16.60;5.30;;;;;;;;;;4931181;28;20042;-92
2022/10/20 02:55:44;;;;;;;14.55;6.30;;;;;;;;;;4945820;28;20023;-92
2022/10/20 02:58:10;;;;;;;17.85;7.10;;;;;;;;;;4931063;28;20039;-92
2022/10/20 03:00:36;;;;;;;12.85;5.53;;;;;;;;;;4946492;28;20482;-92
2022/10/20 03:03:02;;;;;;;13.68;6.03;;;;;;;;;;4936363;28;20041;-92
2022/10/20 03:05:28;;;;;;;15.32;5.72;;;;;;;;;;4928346;28;20070;-92
2022/10/20 03:07:54;;;;;;;13.63;5.80;;;;;;;;;;4932296;28;20874;-92
2022/10/20 03:10:21;;;;;;;10.65;5.80;;;;;;;;;;4956362;28;20038;-92
2022/10/20 03:12:47;;;;;;;17.05;6.32;;;;;;;;;;4946340;28;20039;-92
2022/10/20 03:15:13;;;;;;;18.25;6.53;;;;;;;;;;4948186;28;20031;-92
2022/10/20 03:17:39;;;;;;;18.17;5.78;;;;;;;;;;4937184;28;20416;-92
2022/10/20 03:20:05;;;;;;;12.80;5.95;;;;;;;;;;4948570;28;20097;-93
2022/10/20 03:22:31;;;;;;;15.38;6.05;;;;;;;;;;4935287;28;20041;-92
2022/10/20 03:24:57;;;;;;;12.63;6.10;;;;;;;;;;4934544;28;20031;-92
2022/10/20 03:27:23;;;;;;;18.85;6.45;;;;;;;;;;4949952;28;20045;-92
2022/10/20 03:29:55;;;;;;;14.35;6.40;;;;;;;;;;4945118;28;20063;-92
2022/10/20 03:32:21;;;;;;;24.13;6.90;;;;;;;;;;4915700;29;20094;-92
2022/10/20 03:34:47;;;;;;;12.95;6.18;;;;;;;;;;4928867;29;20032;-93
2022/10/20 03:37:13;;;;;;;14.57;6.88;;;;;;;;;;4949614;28;20451;-92
2022/10/20 03:39:39;;;;;;;22.50;6.30;;;;;;;;;;4934518;29;20038;-92
2022/10/20 03:42:06;;;;;;;13.18;5.95;;;;;;;;;;4934532;29;20031;-93
2022/10/20 03:44:32;;;;;;;14.90;5.85;;;;;;;;;;4929432;29;20061;-92
2022/10/20 03:46:58;;;;;;;11.60;6.28;;;;;;;;;;4937423;29;20042;-92
2022/10/20 03:49:24;;;;;;;10.88;5.38;;;;;;;;;;4922082;29;20032;-93
2022/10/20 03:51:50;;;;;;;11.15;5.80;;;;;;;;;;4963699;28;20032;-93
2022/10/20 03:54:16;;;;;;;11.57;6.15;;;;;;;;;;4925159;28;20043;-93
2022/10/20 03:56:42;;;;;;;17.98;6.20;;;;;;;;;;4939082;29;20042;-92
2022/10/20 03:59:10;;;;;;;14.98;6.20;;;;;;;;;;4934087;28;20039;-92
2022/10/20 04:01:36;;;;;;;19.20;7.43;;;;;;;;;;4948374;28;20027;-93
2022/10/20 04:04:02;;;;;;;17.02;7.93;;;;;;;;;;4946186;28;20030;-93
2022/10/20 04:06:29;;;;;;;17.83;6.57;;;;;;;;;;4956843;28;20050;-93
2022/10/20 04:08:55;;;;;;;22.75;6.85;;;;;;;;;;4935628;28;20467;-92
2022/10/20 04:11:21;;;;;;;24.13;7.60;;;;;;;;;;4947259;28;20039;-92
2022/10/20 04:13:47;;;;;;;17.00;7.05;;;;;;;;;;4924650;28;20058;-91
2022/10/20 04:16:13;;;;;;;20.73;8.57;;;;;;;;;;4932821;28;20031;-93
2022/10/20 04:18:39;;;;;;;17.67;8.00;;;;;;;;;;4961018;28;20087;-92
2022/10/20 04:21:05;;;;;;;15.98;7.93;;;;;;;;;;4952725;28;20024;-93
2022/10/20 04:23:31;;;;;;;10.93;5.53;;;;;;;;;;4927396;28;20152;-92
2022/10/20 04:25:57;;;;;;;17.33;7.80;;;;;;;;;;4931440;28;20035;-93
2022/10/20 04:28:23;;;;;;;18.58;8.43;;;;;;;;;;4924919;29;20451;-92
2022/10/20 04:30:49;;;;;;;17.45;7.40;;;;;;;;;;4931885;28;20051;-93
2022/10/20 04:33:15;;;;;;;19.55;7.63;;;;;;;;;;4947153;28;20043;-93
2022/10/20 04:35:42;;;;;;;19.20;6.90;;;;;;;;;;4947263;28;20046;-92
2022/10/20 04:38:29;;;;;;;23.15;8.88;;;;;;;;;;4954176;28;20042;-93
2022/10/20 04:40:55;;;;;;;15.73;8.43;;;;;;;;;;4945065;28;20046;-92
2022/10/20 04:43:21;;;;;;;15.80;8.02;;;;;;;;;;4928059;28;20489;-93
2022/10/20 04:45:47;;;;;;;18.20;8.68;;;;;;;;;;4933457;28;20054;-94
2022/10/20 04:48:13;;;;;;;17.60;7.22;;;;;;;;;;4949743;28;20396;-94
2022/10/20 04:50:39;;;;;;;22.13;7.72;;;;;;;;;;4932557;28;20047;-94
2022/10/20 04:53:05;;;;;;;15.38;7.50;;;;;;;;;;4941090;28;20411;-92
2022/10/20 04:55:31;;;;;;;15.68;8.00;;;;;;;;;;4951129;28;20213;-92
2022/10/20 04:57:57;;;;;;;13.30;7.32;;;;;;;;;;4925000;29;20559;-92
2022/10/20 05:00:23;;;;;;;16.08;8.10;;;;;;;;;;4931424;28;20126;-92
2022/10/20 05:02:49;;;;;;;22.00;9.90;;;;;;;;;;4961515;28;20027;-92
2022/10/20 05:05:15;;;;;;;18.60;8.45;;;;;;;;;;4926716;28;20043;-92
2022/10/20 05:07:41;;;;;;;13.93;6.78;;;;;;;;;;4946403;28;20154;-92
2022/10/20 05:10:08;;;;;;;18.55;7.85;;;;;;;;;;4950322;28;20133;-92
2022/10/20 05:12:34;;;;;;;16.58;8.02;;;;;;;;;;4949877;28;20041;-92
2022/10/20 05:15:00;;;;;;;21.48;9.10;;;;;;;;;;4946440;28;20039;-92
2022/10/20 05:17:28;;;;;;;24.80;9.32;;;;;;;;;;4928083;28;20035;-92
2022/10/20 05:19:54;;;;;;;17.98;8.13;;;;;;;;;;4932403;28;20031;-92
2022/10/20 05:22:20;;;;;;;15.75;7.47;;;;;;;;;;4932312;28;20172;-93
2022/10/20 05:24:46;;;;;;;17.80;9.88;;;;;;;;;;4949800;28;20034;-93
2022/10/20 05:27:13;;;;;;;22.08;8.98;;;;;;;;;;4928690;28;20035;-92
2022/10/20 05:29:39;;;;;;;16.63;8.98;;;;;;;;;;4922785;28;20046;-92
2022/10/20 05:32:05;;;;;;;19.15;8.98;;;;;;;;;;4939684;28;20038;-92
2022/10/20 05:34:31;;;;;;;11.68;6.72;;;;;;;;;;4949082;28;20037;-92
2022/10/20 05:36:57;;;;;;;20.58;8.27;;;;;;;;;;4946784;28;20035;-92
2022/10/20 05:39:23;;;;;;;21.27;8.90;;;;;;;;;;4959230;28;20032;-92
2022/10/20 05:41:49;;;;;;;19.85;10.48;;;;;;;;;;4957686;28;20032;-91
2022/10/20 05:44:15;;;;;;;20.17;9.77;;;;;;;;;;4929879;28;20039;-91
2022/10/20 05:46:41;;;;;;;22.67;9.68;;;;;;;;;;4931394;28;20086;-92
2022/10/20 05:49:10;;;;;;;18.65;8.88;;;;;;;;;;4931497;28;20035;-92
2022/10/20 05:51:36;;;;;;;20.40;9.20;;;;;;;;;;4940679;28;20045;-91
2022/10/20 05:54:03;;;;;;;20.65;9.27;;;;;;;;;;4932185;29;20066;-91
2022/10/20 05:56:30;;;;;;;22.98;10.20;;;;;;;;;;4945919;28;20130;-92
2022/10/20 05:58:56;;;;;;;23.02;9.57;;;;;;;;;;4940974;28;20023;-93
2022/10/20 06:01:38;;;;;;;27.63;10.30;;;;;;;;;;4931442;29;20500;-92
2022/10/20 06:04:05;;;;;;;20.48;9.82;;;;;;;;;;4944994;28;20762;-92
2022/10/20 06:06:31;;;;;;;24.85;10.10;;;;;;;;;;4956398;28;20054;-91
2022/10/20 06:08:59;;;;;;;19.85;10.68;;;;;;;;;;4944899;28;20465;-92
2022/10/20 06:11:25;;;;;;;23.88;10.43;;;;;;;;;;4944649;28;20030;-91
2022/10/20 06:13:51;;;;;;;19.10;9.23;;;;;;;;;;4947329;28;20094;-92
2022/10/20 06:16:25;;;;;;;13.00;7.60;;;;;;;;;;4955903;28;20090;-92
2022/10/20 06:18:51;;;;;;;21.95;8.40;;;;;;;;;;4946668;28;20038;-93
2022/10/20 06:21:18;;;;;;;17.55;8.95;;;;;;;;;;4943001;28;20047;-91
2022/10/20 06:23:45;;;;;;;24.52;9.35;;;;;;;;;;4942052;28;20586;-91
2022/10/20 06:26:12;;;;;;;22.42;9.68;;;;;;;;;;4943852;28;20031;-92
2022/10/20 06:28:38;;;;;;;23.50;9.60;;;;;;;;;;4945656;28;20035;-91
2022/10/20 06:31:18;;;;;;;17.25;8.70;;;;;;;;;;4950855;28;20900;-92
2022/10/20 06:33:44;;;;;;;20.27;9.55;;;;;;;;;;4960278;28;20046;-93
2022/10/20 06:36:10;;;;;;;21.83;9.93;;;;;;;;;;4945725;28;20067;-94
2022/10/20 06:38:37;;;;;;;22.05;10.43;;;;;;;;;;4945561;28;20180;-90
2022/10/20 06:41:08;;;;;;;23.02;11.57;;;;;;;;;;4955405;28;20027;-89
2022/10/20 06:43:34;;;;;;;25.50;9.90;;;;;;;;;;4941998;28;20150;-90
2022/10/20 06:46:01;;;;;;;18.38;8.93;;;;;;;;;;4925423;29;20031;-90
2022/10/20 06:48:27;;;;;;;25.52;9.82;;;;;;;;;;4961347;28;20548;-89
2022/10/20 06:51:04;;;;;;;19.23;9.65;;;;;;;;;;4950309;28;20026;-90
2022/10/20 06:53:31;;;;;;;21.42;10.18;;;;;;;;;;4963384;28;20090;-90
2022/10/20 06:56:07;;;;;;;20.80;10.68;;;;;;;;;;4947406;28;20030;-89
2022/10/20 06:58:38;;;;;;;23.33;10.18;;;;;;;;;;4949400;28;20031;-89
2022/10/20 07:01:06;;;;;;;17.25;8.57;;;;;;;;;;4951107;28;20474;-89
2022/10/20 07:03:33;;;;;;;22.08;10.40;;;;;;;;;;4954030;28;20724;-89
2022/10/20 07:05:59;;;;;;;19.75;9.45;;;;;;;;;;4948614;28;20035;-90
2022/10/20 07:08:33;;;;;;;28.42;9.95;;;;;;;;;;4944505;28;20580;-90
2022/10/20 07:11:03;;;;;;;15.27;8.15;;;;;;;;;;4949476;28;20083;-90
2022/10/20 07:13:30;;;;;;;15.73;7.55;;;;;;;;;;4942300;28;20047;-90
2022/10/20 07:15:56;;;;;;;21.70;9.25;;;;;;;;;;4944944;28;20034;-93
2022/10/20 07:18:23;;;;;;;21.25;9.80;;;;;;;;;;4943132;28;20206;-93
2022/10/20 07:20:49;;;;;;;18.23;9.25;;;;;;;;;;4958264;28;20031;-94
2022/10/20 07:23:15;;;;;;;14.07;8.10;;;;;;;;;;4956680;28;20501;-92
2022/10/20 07:25:44;;;;;;;20.70;9.40;;;;;;;;;;4922568;28;20047;-93
2022/10/20 07:28:10;;;;;;;15.20;8.00;;;;;;;;;;4927865;28;20447;-92
2022/10/20 07:30:40;;;;;;;17.25;8.90;;;;;;;;;;4934428;28;20510;-93
2022/10/20 07:33:09;;;;;;;18.55;9.32;;;;;;;;;;4947764;28;20477;-93
2022/10/20 07:35:36;;;;;;;17.48;9.27;;;;;;;;;;4946418;28;20041;-93
2022/10/20 07:38:05;;;;;;;18.13;8.80;;;;;;;;;;4954190;28;20510;-93
2022/10/20 07:40:31;;;;;;;19.10;8.88;;;;;;;;;;4948740;28;20031;-92
2022/10/20 07:42:57;;;;;;;20.33;8.50;;;;;;;;;;4934826;28;20080;-92
2022/10/20 07:45:32;;;;;;;17.95;8.27;;;;;;;;;;4947163;28;20070;-92
2022/10/20 07:47:58;;;;;;;24.05;9.10;;;;;;;;;;4949776;28;20027;-93
2022/10/20 07:50:25;;;;;;;25.50;9.95;;;;;;;;;;4935308;28;20168;-92
2022/10/20 07:52:51;;;;;;;20.98;9.35;;;;;;;;;;4948890;28;20031;-92
2022/10/20 07:55:20;;;;;;;15.05;7.80;;;;;;;;;;4966636;28;20030;-93
2022/10/20 07:57:47;;;;;;;18.75;8.75;;;;;;;;;;4952321;28;20039;-92
2022/10/20 08:00:13;;;;;;;18.40;9.45;;;;;;;;;;4950645;28;20395;-93
2022/10/20 08:02:40;;;;;;;15.85;9.38;;;;;;;;;;4954442;28;20035;-92
2022/10/20 08:05:06;;;;;;;16.40;8.65;;;;;;;;;;4960937;28;20034;-93
2022/10/20 08:07:33;;;;;;;17.13;8.82;;;;;;;;;;4954308;28;20146;-93
2022/10/20 08:09:59;;;;;;;16.02;9.07;;;;;;;;;;4932565;28;20046;-92
2022/10/20 08:12:28;;;;;;;16.48;8.18;;;;;;;;;;4938164;28;20600;-92
2022/10/20 08:14:54;;;;;;;24.35;9.35;;;;;;;;;;4945059;28;20504;-93
2022/10/20 08:17:20;;;;;;;16.05;8.07;;;;;;;;;;4956590;28;20040;-93
2022/10/20 08:19:47;;;;;;;17.73;8.32;;;;;;;;;;4929176;28;20572;-92
2022/10/20 08:22:24;;;;;;;23.63;8.48;;;;;;;;;;4931460;28;20491;-94
2022/10/20 08:24:50;;;;;;;12.18;7.28;;;;;;;;;;4950390;28;20035;-93
2022/10/20 08:27:16;;;;;;;15.18;7.28;;;;;;;;;;4950191;28;20027;-93
2022/10/20 08:29:42;;;;;;;12.60;7.22;;;;;;;;;;4947817;28;20035;-93
2022/10/20 08:32:15;;;;;;;16.40;8.35;;;;;;;;;;4932808;28;20102;-93
2022/10/20 08:34:41;;;;;;;18.02;8.40;;;;;;;;;;4934582;28;20545;-92
2022/10/20 08:37:07;;;;;;;25.00;8.98;;;;;;;;;;4930460;29;20178;-93
2022/10/20 08:39:33;;;;;;;15.85;7.93;;;;;;;;;;4933936;29;20475;-92
2022/10/20 08:42:01;;;;;;;14.55;6.88;;;;;;;;;;4948656;28;20082;-92
2022/10/20 08:44:29;;;;;;;14.55;7.60;;;;;;;;;;4945380;28;20170;-92
2022/10/20 08:46:56;;;;;;;21.45;8.45;;;;;;;;;;4939730;29;20042;-93
2022/10/20 08:49:25;;;;;;;16.00;8.75;;;;;;;;;;4946551;28;20039;-93
2022/10/20 08:51:51;;;;;;;15.88;7.18;;;;;;;;;;4932935;29;20027;-93
2022/10/20 08:54:18;;;;;;;11.80;7.07;;;;;;;;;;4944152;28;20607;-93
2022/10/20 08:56:44;;;;;;;16.67;7.15;;;;;;;;;;4930541;29;20031;-93
2022/10/20 08:59:20;;;;;;;14.45;7.53;;;;;;;;;;4940990;28;20034;-93
2022/10/20 09:01:46;;;;;;;15.35;6.43;;;;;;;;;;4943565;28;20115;-93
2022/10/20 09:04:18;;;;;;;11.75;6.63;;;;;;;;;;4927468;28;20075;-92
2022/10/20 09:06:46;;;;;;;21.50;6.72;;;;;;;;;;4957263;28;20023;-92
2022/10/20 09:09:15;;;;;;;12.52;7.43;;;;;;;;;;4941375;28;20118;-93
2022/10/20 09:11:47;;;;;;;15.13;7.22;;;;;;;;;;4953731;28;20141;-93
2022/10/20 09:14:15;;;;;;;16.83;7.10;;;;;;;;;;4950947;28;20024;-93
2022/10/20 09:16:42;;;;;;;11.05;6.95;;;;;;;;;;4925231;29;20035;-94
2022/10/20 09:19:19;;;;;;;16.58;7.55;;;;;;;;;;4954380;28;20027;-93
2022/10/20 09:21:49;;;;;;;16.23;6.15;;;;;;;;;;4945574;28;20443;-93
2022/10/20 09:24:15;;;;;;;6.40;4.55;;;;;;;;;;4957091;28;20531;-93
2022/10/20 09:26:43;;;;;;;9.82;6.43;;;;;;;;;;4942849;28;20054;-93
2022/10/20 09:29:11;;;;;;;12.77;6.97;;;;;;;;;;4959761;28;20594;-94
2022/10/20 09:31:39;;;;;;;11.90;6.03;;;;;;;;;;4944783;28;20062;-94
2022/10/20 09:34:25;;;;;;;14.63;6.10;;;;;;;;;;4947588;28;20122;-93
2022/10/20 09:36:57;;;;;;;14.73;6.57;;;;;;;;;;4957242;28;20208;-94
2022/10/20 09:39:26;;;;;;;11.88;5.78;;;;;;;;;;4944862;28;20115;-93
2022/10/20 09:42:02;;;;;;;16.98;6.53;;;;;;;;;;4949644;28;20026;-93
2022/10/20 09:44:36;;;;;;;10.32;6.38;;;;;;;;;;4936846;28;20038;-93
2022/10/20 09:47:04;;;;;;;12.55;7.20;;;;;;;;;;4961464;28;20121;-93
2022/10/20 09:49:34;;;;;;;13.15;7.25;;;;;;;;;;4926784;29;20050;-93
2022/10/20 09:52:04;;;;;;;17.20;6.60;;;;;;;;;;4962505;28;20495;-93
2022/10/20 09:54:30;;;;;;;12.43;6.25;;;;;;;;;;4927087;28;20048;-93
2022/10/20 09:57:04;;;;;;;8.35;6.43;;;;;;;;;;4944808;28;20060;-93
2022/10/20 09:59:30;;;;;;;11.38;6.60;;;;;;;;;;4943149;28;20030;-93
2022/10/20 10:02:01;;;;;;;10.50;5.85;;;;;;;;;;4962329;28;20479;-93
2022/10/20 10:04:32;;;;;;;14.60;6.43;;;;;;;;;;4950558;28;20050;-93
2022/10/20 10:06:58;;;;;;;13.35;7.47;;;;;;;;;;4959604;28;20035;-93
2022/10/20 10:09:27;;;;;;;11.35;5.25;;;;;;;;;;4934107;29;20024;-92
2022/10/20 10:12:01;;;;;;;11.02;6.75;;;;;;;;;;4955077;28;20126;-93
2022/10/20 10:14:28;;;;;;;11.18;5.80;;;;;;;;;;4948255;28;20117;-94
2022/10/20 10:16:55;;;;;;;13.82;6.28;;;;;;;;;;4960264;28;20030;-93
2022/10/20 10:19:24;;;;;;;12.05;6.60;;;;;;;;;;4945856;28;20056;-93
2022/10/20 10:21:58;;;;;;;11.68;5.82;;;;;;;;;;4947875;28;20032;-93
2022/10/20 10:24:24;;;;;;;15.68;6.45;;;;;;;;;;4951611;28;20039;-93
2022/10/20 10:26:56;;;;;;;10.52;5.93;;;;;;;;;;4944643;28;20035;-93
2022/10/20 10:29:33;;;;;;;13.60;6.13;;;;;;;;;;4951786;28;20147;-94
2022/10/20 10:32:21;;;;;;;15.95;6.15;;;;;;;;;;4954969;28;20385;-93
2022/10/20 10:35:02;;;;;;;12.10;6.28;;;;;;;;;;4953876;28;20086;-93
2022/10/20 10:37:48;;;;;;;17.92;5.95;;;;;;;;;;4952522;28;20057;-93
2022/10/20 10:40:15;;;;;;;;;;;;;;;;;;4954011;28;20034;-93
2022/10/20 10:43:00;;;;;;;11.98;6.07;;;;;;;;;;4946866;28;19962;-94
2022/10/20 10:45:38;;;;;;;7.93;5.18;;;;;;;;;;4964416;28;20093;-94
2022/10/20 10:48:07;;;;;;;12.27;6.38;;;;;;;;;;4952375;28;20585;-94
2022/10/20 10:50:37;;;;;;;11.43;6.97;;;;;;;;;;4965653;28;20035;-94
2022/10/20 10:53:28;;;;;;;13.43;5.72;;;;;;;;;;4963730;28;20106;-94
2022/10/20 10:55:59;;;;;;;9.85;5.38;;;;;;;;;;4966063;28;20537;-94
2022/10/20 10:58:28;;;;;;;10.00;6.55;;;;;;;;;;4955172;28;20486;-94
2022/10/20 11:01:02;;;;;;;12.40;6.85;;;;;;;;;;4944603;28;20081;-94
2022/10/20 11:03:35;;;;;;;8.85;5.88;;;;;;;;;;4955709;28;20037;-93
2022/10/20 11:06:04;;;;;;;11.48;6.07;;;;;;;;;;4955915;28;20026;-94
2022/10/20 11:08:51;;;;;;;11.65;5.85;;;;;;;;;;4956751;28;20130;-94
2022/10/20 11:11:31;;;;;;;9.07;5.25;;;;;;;;;;4953552;28;20037;-93
2022/10/20 11:14:09;;;;;;;7.93;5.28;;;;;;;;;;4946621;28;20033;-94
2022/10/20 11:16:52;;;;;;;9.95;4.97;;;;;;;;;;4968318;28;20110;-94
2022/10/20 11:19:18;;;;;;;11.45;6.53;;;;;;;;;;4962838;28;20077;-95
2022/10/20 11:21:59;;;;;;;16.15;5.72;;;;;;;;;;4950975;28;20110;-94
2022/10/20 11:24:30;;;;;;;10.90;5.85;;;;;;;;;;4950114;28;20860;-94
2022/10/20 11:27:02;;;;;;;12.98;5.70;;;;;;;;;;4952789;28;20034;-94
2022/10/20 11:29:44;;;;;;;11.80;5.78;;;;;;;;;;4932831;28;20047;-94
2022/10/20 11:32:25;;;;;;;8.68;5.68;;;;;;;;;;4957164;28;20043;-94
2022/10/20 11:35:00;;;;;;;13.13;6.53;;;;;;;;;;4945398;28;20527;-95
2022/10/20 11:37:56;;;;;;;13.77;5.63;;;;;;;;;;4963749;28;20058;-94
2022/10/20 11:40:23;;;;;;;7.93;4.75;;;;;;;;;;4935704;28;20043;-94
2022/10/20 11:43:08;;;;;;;16.90;5.63;;;;;;;;;;4950257;28;20467;-94
2022/10/20 11:45:53;;;;;;;13.88;6.03;;;;;;;;;;4958250;28;20505;-94
2022/10/20 11:48:34;;;;;;;12.60;6.63;;;;;;;;;;4950252;28;20050;-94
2022/10/20 11:51:00;;;;;;;8.63;6.10;;;;;;;;;;4950083;28;20041;-94
2022/10/20 11:53:35;;;;;;;10.93;5.60;;;;;;;;;;4950555;28;20031;-93
2022/10/20 11:56:10;;;;;;;10.60;6.15;;;;;;;;;;4963192;28;20552;-94
2022/10/20 11:58:42;;;;;;;11.07;7.00;;;;;;;;;;4958666;28;20198;-94
2022/10/20 12:01:27;;;;;;;11.07;5.45;;;;;;;;;;4950850;28;20408;-95
2022/10/20 12:04:02;;;;;;;10.88;6.60;;;;;;;;;;4961423;28;20081;-95
2022/10/20 12:06:38;;;;;;;14.13;6.43;;;;;;;;;;4952853;28;20034;-94
2022/10/20 12:09:24;;;;;;;11.00;6.28;;;;;;;;;;4946609;28;20400;-94
2022/10/20 12:11:56;;;;;;;9.43;6.03;;;;;;;;;;4965065;28;20042;-94
2022/10/20 12:14:25;;;;;;;11.07;6.50;;;;;;;;;;4961343;28;20058;-94
2022/10/20 12:16:52;;;;;;;14.15;5.53;;;;;;;;;;4941054;28;20031;-94
2022/10/20 12:19:22;;;;;;;10.77;6.38;;;;;;;;;;4960126;28;20034;-94
2022/10/20 12:22:07;;;;;;;10.63;6.20;;;;;;;;;;4947457;28;20055;-94
2022/10/20 12:24:35;;;;;;;10.95;6.10;;;;;;;;;;4961283;28;20030;-94
2022/10/20 12:27:07;;;;;;;9.80;6.97;;;;;;;;;;4953208;28;20283;-94
2022/10/20 12:29:33;;;;;;;15.95;6.78;;;;;;;;;;4962868;28;20035;-94
2022/10/20 12:32:20;;;;;;;14.02;6.50;;;;;;;;;;4949228;28;20545;-94
2022/10/20 12:34:46;;;;;;;13.23;6.78;;;;;;;;;;4948309;28;20414;-94
2022/10/20 12:37:18;;;;;;;12.27;6.97;;;;;;;;;;4952800;28;20478;-94
2022/10/20 12:39:45;;;;;;;16.38;8.85;;;;;;;;;;4955340;28;20019;-94
2022/10/20 12:42:31;;;;;;;13.85;6.60;;;;;;;;;;4950001;28;20046;-94
2022/10/20 12:45:26;;;;;;;12.03;7.57;;;;;;;;;;4966087;28;20039;-94
2022/10/20 12:50:50;;;;;;;10.27;6.90;;;;;;;;;;4951914;28;20498;-94
2022/10/20 12:53:26;;;;;;;14.13;7.18;;;;;;;;;;4949539;28;20035;-94
2022/10/20 12:56:10;;;;;;;14.30;7.82;;;;;;;;;;4953736;28;20034;-94
2022/10/20 12:58:37;;;;;;;12.45;7.18;;;;;;;;;;4967486;28;20031;-94
2022/10/20 13:01:06;;;;;;;16.77;7.88;;;;;;;;;;4947979;28;20411;-94
2022/10/20 13:03:37;;;;;;;15.23;7.25;;;;;;;;;;4948534;28;20058;-94
2022/10/20 13:06:22;;;;;;;16.60;8.65;;;;;;;;;;4953540;28;20618;-94
2022/10/20 13:09:14;;;;;;;13.32;7.93;;;;;;;;;;4953503;28;20058;-94
2022/10/20 13:11:43;;;;;;;17.08;9.30;;;;;;;;;;4942129;28;20038;-94
2022/10/20 13:14:12;;;;;;;17.60;8.52;;;;;;;;;;4952209;28;20227;-95
2022/10/20 13:16:47;;;;;;;15.13;9.15;;;;;;;;;;4945380;28;20042;-94
2022/10/20 13:19:16;;;;;;;15.13;8.37;;;;;;;;;;4953462;28;20398;-94
2022/10/20 13:21:42;;;;;;;15.07;8.57;;;;;;;;;;4958206;28;20070;-95
2022/10/20 13:24:13;;;;;;;16.67;8.30;;;;;;;;;;4947957;28;20047;-95
2022/10/20 13:26:42;;;;;;;12.65;8.23;;;;;;;;;;4954176;28;20557;-94
2022/10/20 13:29:15;;;;;;;15.93;8.82;;;;;;;;;;4961810;28;20042;-95
2022/10/20 13:31:48;;;;;;;21.27;11.02;;;;;;;;;;4947565;28;20030;-94
2022/10/20 13:34:26;;;;;;;28.83;10.27;;;;;;;;;;4948592;28;20634;-94
2022/10/20 13:37:02;;;;;;;22.80;11.00;;;;;;;;;;4957025;28;20027;-94
2022/10/20 13:39:36;;;;;;;19.58;9.95;;;;;;;;;;4944251;28;20042;-94
2022/10/20 13:42:21;;;;;;;21.45;11.40;;;;;;;;;;4966453;28;20027;-94
2022/10/20 13:45:07;;;;;;;24.13;11.18;;;;;;;;;;4957433;28;20027;-94
2022/10/20 13:47:40;;;;;;;22.17;10.43;;;;;;;;;;4942736;28;20094;-95
2022/10/20 13:50:09;;;;;;;23.30;10.52;;;;;;;;;;4957969;28;20031;-95
2022/10/20 13:52:37;;;;;;;27.23;11.85;;;;;;;;;;4948596;28;20035;-94
2022/10/20 13:55:04;;;;;;;18.95;10.65;;;;;;;;;;4942211;28;20055;-95
2022/10/20 13:57:32;;;;;;;20.23;11.05;;;;;;;;;;4952153;28;20043;-94
2022/10/20 13:59:59;;;;;;;20.23;11.23;;;;;;;;;;4947637;28;20038;-94
2022/10/20 14:02:27;;;;;;;17.20;10.45;;;;;;;;;;4944508;28;20066;-94
2022/10/20 14:05:03;;;;;;;20.90;10.25;;;;;;;;;;4956621;28;20035;-94
2022/10/20 14:07:40;;;;;;;21.90;11.70;;;;;;;;;;4946420;28;20063;-94
2022/10/20 14:10:08;;;;;;;22.42;10.95;;;;;;;;;;4946197;28;20081;-94
2022/10/20 14:12:34;;;;;;;23.45;11.35;;;;;;;;;;4928239;29;20558;-94
2022/10/20 14:15:01;;;;;;;24.75;11.57;;;;;;;;;;4941923;28;20075;-94
2022/10/20 14:17:27;;;;;;;19.73;11.20;;;;;;;;;;4947810;28;20039;-94
2022/10/20 14:20:07;;;;;;;19.00;10.60;;;;;;;;;;4927082;28;20035;-94
2022/10/20 14:22:34;;;;;;;21.95;10.73;;;;;;;;;;4960799;28;20023;-94
2022/10/20 14:25:04;;;;;;;31.20;11.60;;;;;;;;;;4945198;28;20113;-94
2022/10/20 14:27:31;;;;;;;0.98;0.63;;;;;;;;;;4943443;28;20066;-93
2022/10/20 14:29:58;;;;;;;0.00;0.00;;;;;;;;;;4943478;28;20058;-94
2022/10/20 14:32:25;;;;;;;0.00;0.00;;;;;;;;;;4950493;28;20046;-94
2022/10/20 14:35:07;;;;;;;0.55;0.55;;;;;;;;;;4945180;28;20082;-94
2022/10/20 14:37:38;;;;;;;0.00;0.00;;;;;;;;;;4956749;28;20637;-93
2022/10/20 14:40:18;;;;;;;0.00;0.00;;;;;;;;;;4944878;28;20038;-94
2022/10/20 14:42:44;;;;;;;0.00;0.00;;;;;;;;;;4943865;29;20079;-95
2022/10/20 14:45:17;;;;;;;0.00;0.00;;;;;;;;;;4931920;29;20577;-95
2022/10/20 14:47:43;;;;;;;0.00;0.00;;;;;;;;;;4944762;28;20035;-94
2022/10/20 14:50:19;;;;;;;0.00;0.00;;;;;;;;;;4943143;28;20186;-94
2022/10/20 14:52:45;;;;;;;0.00;0.00;;;;;;;;;;4941100;28;20058;-94